Time;durP1;ratioP1;P1;durP2;ratioP2;P2;SDS_P1;SDS_P2;PMS_P1;PMS_P2;Temp;Humidity;BMP_temperature;BMP_pressure;BME280_temperature;BME280_humidity;BME280_pressure;Samples;Min_cycle;Max_cycle;Signal;HPM_P1;HPM_P2
2021/12/10 00:01:51;;;;;;;53.97;30.20;;;;;;;;;;5129775;27;20082;-76
2021/12/10 00:04:19;;;;;;;59.10;31.23;;;;;;;;;;5116311;27;20054;-77
2021/12/10 00:06:50;;;;;;;51.15;30.52;;;;;;;;;;5130800;27;20438;-79
2021/12/10 00:09:18;;;;;;;51.55;29.58;;;;;;;;;;5133180;27;20054;-78
2021/12/10 00:11:49;;;;;;;43.92;28.52;;;;;;;;;;5113694;27;20053;-79
2021/12/10 00:14:15;;;;;;;49.78;28.10;;;;;;;;;;5127413;27;20088;-82
2021/12/10 00:16:42;;;;;;;57.00;28.83;;;;;;;;;;5132142;27;20063;-77
2021/12/10 00:19:30;;;;;;;49.25;26.92;;;;;;;;;;5132322;27;20063;-77
2021/12/10 00:21:57;;;;;;;44.50;25.83;;;;;;;;;;5120474;27;20047;-77
2021/12/10 00:24:26;;;;;;;45.40;25.42;;;;;;;;;;5130480;27;20045;-77
2021/12/10 00:26:53;;;;;;;44.88;25.77;;;;;;;;;;5134150;27;20059;-77
2021/12/10 00:29:19;;;;;;;41.15;25.20;;;;;;;;;;5129958;27;20039;-77
2021/12/10 00:31:49;;;;;;;45.40;25.08;;;;;;;;;;5130661;27;20385;-77
2021/12/10 00:34:24;;;;;;;40.72;24.92;;;;;;;;;;5131826;27;20046;-77
2021/12/10 00:36:52;;;;;;;46.42;25.15;;;;;;;;;;5165315;27;20385;-77
2021/12/10 00:39:24;;;;;;;47.38;27.58;;;;;;;;;;5117144;27;20050;-77
2021/12/10 00:41:51;;;;;;;51.72;26.45;;;;;;;;;;5114908;27;20042;-77
2021/12/10 00:44:17;;;;;;;46.78;25.00;;;;;;;;;;5116812;27;20042;-77
2021/12/10 00:46:43;;;;;;;43.72;24.35;;;;;;;;;;5119627;27;20082;-77
2021/12/10 00:49:09;;;;;;;43.40;23.75;;;;;;;;;;5151475;27;20057;-77
2021/12/10 00:51:36;;;;;;;42.50;23.85;;;;;;;;;;5132684;27;20534;-77
2021/12/10 00:54:03;;;;;;;38.97;24.20;;;;;;;;;;5163185;27;20035;-77
2021/12/10 00:56:29;;;;;;;46.47;25.33;;;;;;;;;;5108052;27;20146;-77
2021/12/10 00:58:55;;;;;;;41.72;25.08;;;;;;;;;;5109176;27;20043;-77
2021/12/10 01:01:24;;;;;;;42.00;25.55;;;;;;;;;;5126264;27;20393;-77
2021/12/10 01:04:01;;;;;;;48.53;24.67;;;;;;;;;;5105497;27;20035;-77
2021/12/10 01:06:28;;;;;;;46.35;24.77;;;;;;;;;;5108881;27;20047;-77
2021/12/10 01:08:56;;;;;;;48.20;24.30;;;;;;;;;;5108835;28;20133;-77
2021/12/10 01:11:27;;;;;;;43.72;24.52;;;;;;;;;;5126567;27;20051;-77
2021/12/10 01:13:58;;;;;;;45.97;26.15;;;;;;;;;;5106282;27;20043;-77
2021/12/10 01:24:54;;;;;;;44.65;22.85;;;;;;;;;;5123098;28;20104;-77
2021/12/10 01:27:32;;;;;;;33.70;22.20;;;;;;;;;;5107353;28;20261;-76
2021/12/10 01:29:59;;;;;;;45.22;22.45;;;;;;;;;;5122019;28;20044;-77
2021/12/10 01:32:27;;;;;;;42.55;23.33;;;;;;;;;;5124364;28;20061;-77
2021/12/10 01:34:53;;;;;;;41.97;22.92;;;;;;;;;;5116482;28;20129;-77
2021/12/10 01:37:20;;;;;;;43.58;23.58;;;;;;;;;;5121145;28;20040;-77
2021/12/10 01:39:46;;;;;;;43.78;22.52;;;;;;;;;;5121738;28;20039;-77
2021/12/10 01:43:01;;;;;;;37.30;22.10;;;;;;;;;;5125240;28;20043;-77
2021/12/10 01:45:06;;;;;;;38.38;21.90;;;;;;;;;;5109037;28;20043;-77
2021/12/10 01:47:34;;;;;;;38.03;21.33;;;;;;;;;;5122008;28;20126;-77
2021/12/10 01:50:01;;;;;;;46.85;23.25;;;;;;;;;;5119444;28;20087;-77
2021/12/10 01:52:27;;;;;;;43.92;22.25;;;;;;;;;;5126435;28;20051;-77
2021/12/10 01:54:58;;;;;;;43.42;22.42;;;;;;;;;;5119315;27;20461;-77
2021/12/10 01:57:27;;;;;;;47.78;22.05;;;;;;;;;;5133004;27;20046;-77
2021/12/10 01:59:54;;;;;;;41.40;22.35;;;;;;;;;;5132611;27;20046;-77
2021/12/10 02:02:24;;;;;;;52.30;24.40;;;;;;;;;;5115894;27;20046;-77
2021/12/10 02:04:51;;;;;;;36.55;22.77;;;;;;;;;;5116296;27;20045;-77
2021/12/10 02:07:19;;;;;;;43.33;22.15;;;;;;;;;;5135157;27;20035;-77
2021/12/10 02:09:46;;;;;;;41.08;23.15;;;;;;;;;;5132602;27;20434;-77
2021/12/10 02:12:12;;;;;;;44.05;21.42;;;;;;;;;;5133522;27;20053;-77
2021/12/10 02:14:39;;;;;;;39.00;21.80;;;;;;;;;;5115117;27;20038;-77
2021/12/10 02:17:06;;;;;;;40.60;21.50;;;;;;;;;;5133373;27;20159;-77
2021/12/10 02:19:32;;;;;;;39.97;20.23;;;;;;;;;;5115285;27;20043;-77
2021/12/10 02:21:59;;;;;;;31.50;18.60;;;;;;;;;;5131757;27;20427;-77
2021/12/10 02:24:25;;;;;;;38.03;18.65;;;;;;;;;;5133648;27;20047;-77
2021/12/10 02:26:54;;;;;;;43.35;19.40;;;;;;;;;;5119886;27;20034;-78
2021/12/10 02:29:22;;;;;;;38.78;19.30;;;;;;;;;;5140704;27;20039;-78
2021/12/10 02:31:48;;;;;;;39.60;19.05;;;;;;;;;;5126339;27;20046;-77
2021/12/10 02:34:14;;;;;;;34.63;17.25;;;;;;;;;;5120562;27;20034;-77
2021/12/10 02:36:42;;;;;;;32.72;16.98;;;;;;;;;;5136050;27;20039;-77
2021/12/10 02:39:12;;;;;;;28.73;16.67;;;;;;;;;;5118902;27;20046;-77
2021/12/10 02:41:39;;;;;;;34.42;18.23;;;;;;;;;;5135939;27;20049;-77
2021/12/10 02:44:06;;;;;;;28.05;16.60;;;;;;;;;;5105226;27;20042;-77
2021/12/10 02:46:32;;;;;;;38.88;15.75;;;;;;;;;;5119153;27;20047;-77
2021/12/10 02:48:58;;;;;;;36.38;17.27;;;;;;;;;;5135462;27;20418;-77
2021/12/10 02:51:24;;;;;;;31.92;17.00;;;;;;;;;;5133796;27;20057;-77
2021/12/10 02:53:51;;;;;;;35.33;17.45;;;;;;;;;;5134231;27;20034;-77
2021/12/10 02:56:19;;;;;;;28.92;16.25;;;;;;;;;;5133010;27;20099;-77
2021/12/10 02:58:46;;;;;;;28.33;17.75;;;;;;;;;;5135060;27;20072;-77
2021/12/10 03:01:17;;;;;;;35.38;17.45;;;;;;;;;;5135031;27;20121;-77
2021/12/10 03:03:43;;;;;;;39.05;18.35;;;;;;;;;;5116779;27;20126;-77
2021/12/10 03:06:11;;;;;;;40.67;17.90;;;;;;;;;;5132451;27;20077;-77
2021/12/10 03:08:43;;;;;;;37.83;18.95;;;;;;;;;;5117936;27;20477;-77
2021/12/10 03:11:11;;;;;;;28.35;16.40;;;;;;;;;;5134536;27;20099;-77
2021/12/10 03:13:37;;;;;;;30.80;17.85;;;;;;;;;;5137408;27;20078;-77
2021/12/10 03:16:04;;;;;;;34.53;18.20;;;;;;;;;;5133915;27;20367;-77
2021/12/10 03:18:30;;;;;;;35.92;17.27;;;;;;;;;;5136180;27;20042;-77
2021/12/10 03:20:56;;;;;;;28.25;17.60;;;;;;;;;;5118754;27;20125;-77
2021/12/10 03:23:22;;;;;;;34.10;17.63;;;;;;;;;;5101224;27;20042;-77
2021/12/10 03:25:48;;;;;;;33.40;17.63;;;;;;;;;;5167174;27;20133;-77
2021/12/10 03:28:14;;;;;;;31.65;17.67;;;;;;;;;;5120304;27;20121;-78
2021/12/10 03:30:42;;;;;;;36.72;17.67;;;;;;;;;;5118306;27;20031;-78
2021/12/10 03:33:09;;;;;;;32.88;18.45;;;;;;;;;;5115442;27;20050;-77
2021/12/10 03:35:41;;;;;;;34.28;18.73;;;;;;;;;;5115667;27;20054;-78
2021/12/10 03:38:08;;;;;;;37.80;18.55;;;;;;;;;;5137081;27;20060;-78
2021/12/10 03:40:34;;;;;;;33.22;18.50;;;;;;;;;;5149174;27;20039;-77
2021/12/10 03:43:00;;;;;;;31.95;16.85;;;;;;;;;;5133580;27;20050;-78
2021/12/10 03:45:28;;;;;;;34.08;17.98;;;;;;;;;;5133000;27;20056;-77
2021/12/10 03:47:54;;;;;;;35.55;17.60;;;;;;;;;;5114576;27;20516;-77
2021/12/10 03:50:25;;;;;;;31.20;17.35;;;;;;;;;;5133915;27;20180;-78
2021/12/10 03:52:51;;;;;;;32.70;17.45;;;;;;;;;;5115646;27;20039;-77
2021/12/10 03:55:18;;;;;;;33.33;16.58;;;;;;;;;;5131673;27;20077;-78
2021/12/10 03:57:46;;;;;;;32.78;16.45;;;;;;;;;;5116944;27;20477;-77
2021/12/10 04:00:13;;;;;;;35.15;16.83;;;;;;;;;;5135940;27;20042;-78
2021/12/10 04:02:39;;;;;;;35.83;17.42;;;;;;;;;;5118213;27;20038;-78
2021/12/10 04:05:05;;;;;;;37.25;16.48;;;;;;;;;;5112978;27;20176;-78
2021/12/10 04:07:32;;;;;;;31.30;16.63;;;;;;;;;;5133655;27;20031;-78
2021/12/10 04:09:58;;;;;;;26.92;15.63;;;;;;;;;;5140625;27;20034;-78
2021/12/10 04:12:24;;;;;;;36.70;17.27;;;;;;;;;;5139428;27;20473;-78
2021/12/10 04:14:50;;;;;;;33.72;17.33;;;;;;;;;;5135679;27;20043;-78
2021/12/10 04:17:19;;;;;;;29.77;16.77;;;;;;;;;;5126440;27;20069;-78
2021/12/10 04:19:45;;;;;;;23.92;15.48;;;;;;;;;;5097496;27;20064;-78
2021/12/10 04:22:12;;;;;;;34.90;15.52;;;;;;;;;;5134131;27;20050;-78
2021/12/10 04:24:40;;;;;;;31.88;17.35;;;;;;;;;;5114131;27;20096;-78
2021/12/10 04:27:08;;;;;;;31.70;17.58;;;;;;;;;;5118512;27;20422;-78
2021/12/10 04:29:34;;;;;;;31.50;17.42;;;;;;;;;;5134746;27;20095;-79
2021/12/10 04:32:00;;;;;;;40.22;17.00;;;;;;;;;;5119085;27;20679;-78
2021/12/10 04:34:27;;;;;;;34.15;17.02;;;;;;;;;;5130041;27;20051;-78
2021/12/10 04:36:55;;;;;;;30.92;16.92;;;;;;;;;;5143148;27;20087;-78
2021/12/10 04:39:21;;;;;;;34.55;17.60;;;;;;;;;;5134008;27;20130;-78
2021/12/10 04:41:47;;;;;;;26.73;17.45;;;;;;;;;;5132945;27;20045;-77
2021/12/10 04:44:14;;;;;;;26.98;18.27;;;;;;;;;;5114579;27;20047;-78
2021/12/10 04:46:40;;;;;;;31.20;17.90;;;;;;;;;;5115832;27;20042;-78
2021/12/10 04:49:08;;;;;;;25.63;16.58;;;;;;;;;;5132489;27;20039;-78
2021/12/10 04:51:39;;;;;;;27.67;17.15;;;;;;;;;;5132095;27;20042;-78
2021/12/10 04:54:06;;;;;;;27.00;17.35;;;;;;;;;;5132535;27;20038;-77
2021/12/10 04:56:33;;;;;;;31.25;17.75;;;;;;;;;;5115577;27;20042;-77
2021/12/10 04:59:00;;;;;;;27.63;17.70;;;;;;;;;;5133316;27;20039;-77
2021/12/10 05:01:27;;;;;;;28.02;17.10;;;;;;;;;;5115266;27;20251;-77
2021/12/10 05:03:53;;;;;;;30.15;17.27;;;;;;;;;;5131207;27;20050;-77
2021/12/10 05:06:19;;;;;;;30.05;16.88;;;;;;;;;;5131413;27;20483;-77
2021/12/10 05:08:45;;;;;;;31.77;18.52;;;;;;;;;;5164888;27;20046;-77
2021/12/10 05:11:12;;;;;;;26.10;17.58;;;;;;;;;;5115437;27;20046;-77
2021/12/10 05:13:39;;;;;;;28.13;17.67;;;;;;;;;;5117742;27;20045;-77
2021/12/10 05:16:05;;;;;;;33.15;20.23;;;;;;;;;;5141277;27;20031;-77
2021/12/10 05:18:37;;;;;;;32.08;19.63;;;;;;;;;;5132782;27;20480;-76
2021/12/10 05:21:03;;;;;;;36.55;21.00;;;;;;;;;;5132334;27;20046;-84
2021/12/10 05:23:29;;;;;;;35.97;22.17;;;;;;;;;;5130279;27;20125;-77
2021/12/10 05:25:55;;;;;;;37.03;22.20;;;;;;;;;;5117670;27;20392;-78
2021/12/10 05:28:22;;;;;;;31.67;20.35;;;;;;;;;;5122112;27;20046;-79
2021/12/10 05:30:49;;;;;;;29.13;20.73;;;;;;;;;;5116544;27;20034;-78
2021/12/10 05:33:18;;;;;;;40.38;21.38;;;;;;;;;;5116312;27;20105;-78
2021/12/10 05:35:46;;;;;;;35.13;21.42;;;;;;;;;;5118221;27;20071;-77
2021/12/10 05:38:13;;;;;;;32.97;21.13;;;;;;;;;;5122204;27;20038;-78
2021/12/10 05:40:39;;;;;;;33.58;20.73;;;;;;;;;;5128070;27;20095;-77
2021/12/10 05:43:05;;;;;;;30.27;19.70;;;;;;;;;;5126862;27;20138;-76
2021/12/10 05:45:31;;;;;;;31.63;21.17;;;;;;;;;;5121332;27;20112;-79
2021/12/10 05:47:58;;;;;;;36.70;20.73;;;;;;;;;;5135529;27;20046;-78
2021/12/10 05:50:25;;;;;;;27.52;19.98;;;;;;;;;;5131409;27;20046;-74
2021/12/10 05:52:51;;;;;;;35.05;21.33;;;;;;;;;;5111692;27;20046;-78
2021/12/10 05:55:17;;;;;;;30.45;20.17;;;;;;;;;;5128868;27;20039;-77
2021/12/10 05:57:43;;;;;;;32.70;22.33;;;;;;;;;;5132027;27;21182;-75
2021/12/10 06:00:16;;;;;;;33.90;22.67;;;;;;;;;;5142086;27;20042;-76
2021/12/10 06:02:42;;;;;;;36.10;23.02;;;;;;;;;;5134648;27;20039;-76
2021/12/10 06:05:08;;;;;;;34.30;23.20;;;;;;;;;;5139806;27;20039;-76
2021/12/10 06:07:34;;;;;;;34.05;22.33;;;;;;;;;;5101096;27;20077;-75
2021/12/10 06:10:00;;;;;;;36.65;23.50;;;;;;;;;;5116411;27;20043;-76
2021/12/10 06:12:27;;;;;;;38.75;23.55;;;;;;;;;;5132837;27;20035;-76
2021/12/10 06:14:53;;;;;;;35.17;23.23;;;;;;;;;;5157019;27;20512;-76
2021/12/10 06:17:19;;;;;;;34.60;23.45;;;;;;;;;;5122839;27;20478;-76
2021/12/10 06:19:45;;;;;;;38.25;24.35;;;;;;;;;;5145004;27;20481;-76
2021/12/10 06:22:11;;;;;;;44.92;25.88;;;;;;;;;;5120290;27;20042;-76
2021/12/10 06:24:37;;;;;;;39.15;23.80;;;;;;;;;;5128774;27;20050;-76
2021/12/10 06:27:03;;;;;;;34.17;22.58;;;;;;;;;;5112241;27;20110;-76
2021/12/10 06:29:30;;;;;;;33.40;21.38;;;;;;;;;;5110239;27;20139;-77
2021/12/10 06:31:56;;;;;;;31.92;22.77;;;;;;;;;;5146992;27;20058;-80
2021/12/10 06:34:23;;;;;;;40.97;24.75;;;;;;;;;;5118331;27;20123;-77
2021/12/10 06:36:49;;;;;;;35.20;23.67;;;;;;;;;;5171001;27;20049;-76
2021/12/10 06:39:20;;;;;;;35.42;21.67;;;;;;;;;;5116960;27;20065;-77
2021/12/10 06:41:47;;;;;;;36.05;23.73;;;;;;;;;;5127505;27;20117;-76
2021/12/10 06:44:13;;;;;;;31.52;22.65;;;;;;;;;;5119511;27;20554;-76
2021/12/10 06:46:39;;;;;;;36.70;22.88;;;;;;;;;;5119634;27;20385;-76
2021/12/10 06:49:06;;;;;;;33.33;22.23;;;;;;;;;;5113481;27;20038;-77
2021/12/10 06:51:32;;;;;;;33.65;23.38;;;;;;;;;;5125536;27;20050;-76
2021/12/10 06:53:58;;;;;;;32.53;22.65;;;;;;;;;;5168307;27;20041;-77
2021/12/10 06:56:24;;;;;;;36.25;23.33;;;;;;;;;;5135756;27;20107;-76
2021/12/10 06:58:51;;;;;;;29.80;20.52;;;;;;;;;;5119588;27;20099;-76
2021/12/10 07:01:27;;;;;;;28.85;21.02;;;;;;;;;;5119499;27;20079;-76
2021/12/10 07:03:54;;;;;;;33.92;20.30;;;;;;;;;;5118405;27;20043;-77
2021/12/10 07:06:21;;;;;;;29.65;21.05;;;;;;;;;;5157055;27;20043;-76
2021/12/10 07:08:48;;;;;;;31.42;20.25;;;;;;;;;;5109250;27;20046;-77
2021/12/10 07:11:15;;;;;;;28.58;19.33;;;;;;;;;;5143933;27;20081;-76
2021/12/10 07:13:44;;;;;;;29.58;20.27;;;;;;;;;;5149556;27;20071;-77
2021/12/10 07:16:10;;;;;;;28.63;18.75;;;;;;;;;;5135605;27;20046;-77
2021/12/10 07:18:37;;;;;;;30.00;19.98;;;;;;;;;;5144329;27;20098;-77
2021/12/10 07:21:04;;;;;;;29.00;19.40;;;;;;;;;;5138182;27;20039;-76
2021/12/10 07:23:30;;;;;;;30.10;18.92;;;;;;;;;;5126621;27;20043;-77
2021/12/10 07:25:56;;;;;;;29.08;19.73;;;;;;;;;;5106194;27;20071;-77
2021/12/10 07:28:22;;;;;;;30.52;18.20;;;;;;;;;;5147478;27;20042;-77
2021/12/10 07:30:49;;;;;;;25.27;18.98;;;;;;;;;;5125793;27;20047;-77
2021/12/10 07:33:16;;;;;;;28.52;19.15;;;;;;;;;;5127400;27;20043;-76
2021/12/10 07:35:43;;;;;;;26.92;17.85;;;;;;;;;;5120488;27;20050;-77
2021/12/10 07:38:10;;;;;;;30.80;17.80;;;;;;;;;;5099854;27;20051;-77
2021/12/10 07:40:37;;;;;;;29.00;17.17;;;;;;;;;;5099487;27;20076;-77
2021/12/10 07:43:04;;;;;;;28.58;17.55;;;;;;;;;;5151031;27;20043;-77
2021/12/10 07:45:30;;;;;;;24.90;16.25;;;;;;;;;;5093699;27;20088;-77
2021/12/10 07:47:57;;;;;;;28.65;18.33;;;;;;;;;;5161754;27;20054;-77
2021/12/10 07:50:29;;;;;;;30.98;17.35;;;;;;;;;;5127322;27;20440;-77
2021/12/10 07:52:56;;;;;;;24.90;17.17;;;;;;;;;;5133078;27;20481;-77
2021/12/10 07:55:27;;;;;;;24.75;17.35;;;;;;;;;;5118749;27;20041;-77
2021/12/10 07:57:53;;;;;;;25.25;16.27;;;;;;;;;;5133587;27;20097;-77
2021/12/10 08:00:21;;;;;;;25.02;16.23;;;;;;;;;;5116303;27;20046;-77
2021/12/10 08:02:48;;;;;;;24.98;17.15;;;;;;;;;;5122334;27;20092;-77
2021/12/10 08:05:14;;;;;;;24.52;16.25;;;;;;;;;;5102716;27;20509;-77
2021/12/10 08:07:41;;;;;;;26.20;15.93;;;;;;;;;;5098139;27;20122;-77
2021/12/10 08:10:07;;;;;;;26.23;15.20;;;;;;;;;;5114472;27;20042;-77
2021/12/10 08:12:34;;;;;;;22.92;14.52;;;;;;;;;;5099646;27;20043;-77
2021/12/10 08:15:00;;;;;;;24.88;15.68;;;;;;;;;;5114965;27;20514;-77
2021/12/10 08:17:26;;;;;;;21.55;14.20;;;;;;;;;;5099436;27;20055;-78
2021/12/10 08:19:53;;;;;;;24.58;14.13;;;;;;;;;;5118515;27;20050;-78
2021/12/10 08:22:19;;;;;;;21.98;14.82;;;;;;;;;;5100051;27;20065;-78
2021/12/10 08:24:45;;;;;;;20.75;13.80;;;;;;;;;;5116950;27;20038;-78
2021/12/10 08:27:12;;;;;;;23.88;14.07;;;;;;;;;;5117519;27;20054;-78
2021/12/10 08:29:41;;;;;;;20.00;13.48;;;;;;;;;;5132831;27;20062;-78
2021/12/10 08:32:07;;;;;;;20.02;13.75;;;;;;;;;;5117543;27;20042;-78
2021/12/10 08:34:33;;;;;;;19.63;13.02;;;;;;;;;;5096588;27;20043;-77
2021/12/10 08:37:00;;;;;;;20.33;12.35;;;;;;;;;;5116326;27;20469;-77
2021/12/10 08:39:26;;;;;;;16.33;11.05;;;;;;;;;;5098883;27;20046;-77
2021/12/10 08:41:56;;;;;;;18.23;12.48;;;;;;;;;;5085762;27;20043;-78
2021/12/10 08:44:22;;;;;;;19.75;12.75;;;;;;;;;;5117788;27;20086;-79
2021/12/10 08:46:48;;;;;;;20.67;12.95;;;;;;;;;;5118953;27;20696;-80
2021/12/10 08:49:14;;;;;;;18.25;12.15;;;;;;;;;;5154714;27;20050;-79
2021/12/10 08:51:46;;;;;;;19.83;12.20;;;;;;;;;;5121121;27;20035;-80
2021/12/10 08:54:14;;;;;;;17.90;12.27;;;;;;;;;;5118554;27;20068;-79
2021/12/10 08:56:40;;;;;;;21.65;13.07;;;;;;;;;;5115122;27;20130;-79
2021/12/10 08:59:07;;;;;;;17.60;12.32;;;;;;;;;;5098019;27;20039;-80
2021/12/10 09:01:35;;;;;;;21.80;11.88;;;;;;;;;;5096657;27;20141;-79
2021/12/10 09:04:03;;;;;;;19.98;11.60;;;;;;;;;;5097455;27;20498;-78
2021/12/10 09:06:30;;;;;;;17.77;10.77;;;;;;;;;;5097252;27;20051;-79
2021/12/10 09:08:57;;;;;;;14.35;10.82;;;;;;;;;;5117130;27;20427;-77
2021/12/10 09:11:24;;;;;;;18.13;11.10;;;;;;;;;;5114409;27;20042;-77
2021/12/10 09:13:50;;;;;;;11.88;9.93;;;;;;;;;;5137879;27;20047;-77
2021/12/10 09:16:22;;;;;;;17.83;11.00;;;;;;;;;;5136125;27;20486;-77
2021/12/10 09:18:50;;;;;;;14.82;10.25;;;;;;;;;;5113680;27;20054;-78
2021/12/10 09:21:16;;;;;;;14.38;10.10;;;;;;;;;;5097741;28;20504;-81
2021/12/10 09:23:42;;;;;;;14.38;9.05;;;;;;;;;;5149035;27;20050;-82
2021/12/10 09:26:10;;;;;;;14.50;9.05;;;;;;;;;;5115751;27;20052;-81
2021/12/10 09:28:38;;;;;;;15.07;8.80;;;;;;;;;;5127252;27;20091;-83
2021/12/10 09:31:06;;;;;;;12.35;8.52;;;;;;;;;;5116467;27;20042;-84
2021/12/10 09:33:32;;;;;;;;;;;;;;;;;;5122875;27;20470;-80
2021/12/10 09:35:58;;;;;;;;;;;;;;;;;;5155457;27;19968;-85
2021/12/10 09:38:24;;;;;;;;;;;;;;;;;;5125375;27;19930;-82
2021/12/10 09:40:52;;;;;;;;;;;;;;;;;;5131170;27;19972;-82
2021/12/10 09:43:18;;;;;;;;;;;;;;;;;;5139900;27;19923;-82
2021/12/10 09:45:44;;;;;;;;;;;;;;;;;;5121111;27;19984;-81
2021/12/10 09:48:10;;;;;;;;;;;;;;;;;;5134861;27;19931;-81
2021/12/10 09:50:36;;;;;;;;;;;;;;;;;;5152771;27;19940;-80
2021/12/10 09:53:02;;;;;;;;;;;;;;;;;;5151589;27;19968;-82
2021/12/10 09:55:28;;;;;;;;;;;;;;;;;;5134197;27;20366;-81
2021/12/10 09:57:54;;;;;;;;;;;;;;;;;;5119684;27;19967;-79
2021/12/10 10:00:20;;;;;;;;;;;;;;;;;;5138863;27;19927;-78
2021/12/10 10:02:46;;;;;;;;;;;;;;;;;;5152882;27;20286;-81
2021/12/10 10:05:12;;;;;;;;;;;;;;;;;;5127422;27;19919;-83
2021/12/10 10:07:38;;;;;;;;;;;;;;;;;;5125760;27;19927;-81
2021/12/10 10:10:04;;;;;;;;;;;;;;;;;;5138335;27;19931;-80
2021/12/10 10:12:31;;;;;;;;;;;;;;;;;;5154013;27;19923;-79
2021/12/10 10:14:57;;;;;;;10.13;5.82;;;;;;;;;;5133397;27;19972;-79
2021/12/10 10:17:24;;;;;;;10.27;5.45;;;;;;;;;;5102038;27;20502;-80
2021/12/10 10:19:51;;;;;;;8.40;6.10;;;;;;;;;;5150547;27;20082;-79
2021/12/10 10:22:19;;;;;;;10.65;6.40;;;;;;;;;;5117785;27;20053;-85
2021/12/10 10:24:45;;;;;;;11.18;5.32;;;;;;;;;;5118122;27;20043;-77
2021/12/10 10:27:21;;;;;;;10.90;5.68;;;;;;;;;;5125768;27;20130;-81
2021/12/10 10:29:50;;;;;;;10.20;5.63;;;;;;;;;;5161166;27;20043;-77
2021/12/10 10:32:18;;;;;;;11.30;6.07;;;;;;;;;;5134640;27;20051;-77
2021/12/10 10:34:47;;;;;;;9.27;6.63;;;;;;;;;;5116859;27;20047;-77
2021/12/10 10:37:13;;;;;;;9.60;5.93;;;;;;;;;;5118066;27;20039;-77
2021/12/10 10:39:41;;;;;;;7.93;5.32;;;;;;;;;;5142348;27;20134;-77
2021/12/10 10:42:11;;;;;;;7.97;5.80;;;;;;;;;;5135057;27;20428;-77
2021/12/10 10:44:38;;;;;;;10.95;5.80;;;;;;;;;;5118049;27;20440;-77
2021/12/10 10:47:04;;;;;;;10.90;5.95;;;;;;;;;;5134246;27;20046;-77
2021/12/10 10:49:36;;;;;;;22.58;7.60;;;;;;;;;;5142480;27;20446;-77
2021/12/10 10:52:14;;;;;;;11.15;5.80;;;;;;;;;;5119254;27;20092;-77
2021/12/10 10:54:41;;;;;;;10.32;5.57;;;;;;;;;;5120472;27;20034;-77
2021/12/10 10:57:15;;;;;;;9.68;5.40;;;;;;;;;;5103065;28;20055;-77
2021/12/10 10:59:42;;;;;;;9.75;5.53;;;;;;;;;;5105853;28;20085;-77
2021/12/10 11:02:10;;;;;;;12.02;5.43;;;;;;;;;;5094430;28;20093;-77
2021/12/10 11:04:44;;;;;;;8.63;5.30;;;;;;;;;;5109311;28;20399;-77
2021/12/10 11:07:10;;;;;;;;;;;;;;;;;;5076705;28;20403;-77
2021/12/10 11:09:43;;;;;;;7.90;5.00;;;;;;;;;;5082434;28;19920;-77
2021/12/10 11:12:13;;;;;;;9.02;5.20;;;;;;;;;;5093681;28;20098;-77
2021/12/10 11:14:45;;;;;;;8.90;5.47;;;;;;;;;;5076465;28;20036;-77
2021/12/10 11:17:26;;;;;;;12.20;5.10;;;;;;;;;;5088599;28;20052;-77
2021/12/10 11:19:54;;;;;;;9.73;5.18;;;;;;;;;;5101336;28;20040;-77
2021/12/10 11:22:22;;;;;;;10.77;5.20;;;;;;;;;;5094388;28;20414;-79
2021/12/10 11:25:09;;;;;;;10.60;5.00;;;;;;;;;;5092510;28;20152;-77
2021/12/10 11:27:37;;;;;;;8.40;5.35;;;;;;;;;;5101337;28;20131;-77
2021/12/10 11:30:03;;;;;;;10.80;5.18;;;;;;;;;;5092895;28;20036;-77
2021/12/10 11:32:34;;;;;;;8.80;4.90;;;;;;;;;;5099676;28;20106;-77
2021/12/10 11:35:08;;;;;;;10.40;5.15;;;;;;;;;;5108048;28;20060;-77
2021/12/10 11:37:39;;;;;;;8.45;4.85;;;;;;;;;;5075910;28;20052;-76
2021/12/10 11:40:06;;;;;;;10.70;5.13;;;;;;;;;;5092287;28;20044;-77
2021/12/10 11:42:41;;;;;;;6.82;4.90;;;;;;;;;;5090894;28;20123;-77
2021/12/10 11:45:31;;;;;;;10.32;5.05;;;;;;;;;;5093270;28;20087;-77
2021/12/10 11:48:06;;;;;;;8.23;4.70;;;;;;;;;;5092990;28;20155;-77
2021/12/10 11:50:33;;;;;;;8.82;4.25;;;;;;;;;;5072906;28;20130;-77
2021/12/10 11:53:08;;;;;;;9.48;4.57;;;;;;;;;;5092731;28;20390;-78
2021/12/10 11:55:35;;;;;;;8.13;4.95;;;;;;;;;;5093250;28;20062;-77
2021/12/10 11:58:03;;;;;;;9.73;4.90;;;;;;;;;;5098929;28;20514;-77
2021/12/10 12:00:31;;;;;;;7.45;4.35;;;;;;;;;;5106949;28;20478;-76
2021/12/10 12:03:07;;;;;;;10.38;4.82;;;;;;;;;;5094272;28;20084;-78
2021/12/10 12:05:34;;;;;;;9.18;4.43;;;;;;;;;;5094292;28;20089;-78
2021/12/10 12:08:04;;;;;;;7.93;4.55;;;;;;;;;;5098157;28;20478;-78
2021/12/10 12:10:38;;;;;;;8.32;4.25;;;;;;;;;;5098967;28;20048;-78
2021/12/10 12:13:34;;;;;;;10.38;4.07;;;;;;;;;;5091491;28;20052;-78
2021/12/10 12:16:01;;;;;;;8.63;4.20;;;;;;;;;;5091283;28;20063;-78
2021/12/10 12:18:29;;;;;;;10.43;4.55;;;;;;;;;;5075929;28;20166;-78
2021/12/10 12:26:51;;;;;;;8.25;3.97;;;;;;;;;;5092215;28;20055;-78
2021/12/10 12:29:18;;;;;;;8.07;4.05;;;;;;;;;;5104351;28;20055;-77
2021/12/10 12:31:54;;;;;;;8.63;4.07;;;;;;;;;;5091918;28;20044;-78
2021/12/10 12:34:24;;;;;;;6.15;3.70;;;;;;;;;;5074894;28;20483;-78
2021/12/10 12:36:50;;;;;;;8.73;3.90;;;;;;;;;;5081219;28;20054;-78
2021/12/10 12:39:36;;;;;;;6.03;3.38;;;;;;;;;;5087472;28;20536;-77
2021/12/10 12:42:05;;;;;;;8.80;3.97;;;;;;;;;;5093517;28;20561;-81
2021/12/10 12:44:34;;;;;;;7.90;4.10;;;;;;;;;;5092531;28;20047;-80
2021/12/10 12:47:01;;;;;;;6.60;3.60;;;;;;;;;;5098684;28;20551;-80
2021/12/10 12:49:31;;;;;;;7.03;3.45;;;;;;;;;;5092415;28;20040;-80
2021/12/10 12:52:05;;;;;;;8.75;4.30;;;;;;;;;;5074179;28;20463;-79
2021/12/10 12:54:32;;;;;;;12.13;3.90;;;;;;;;;;5076006;28;20390;-79
2021/12/10 12:56:58;;;;;;;9.38;3.90;;;;;;;;;;5099352;28;20518;-80
2021/12/10 12:59:24;;;;;;;9.18;3.95;;;;;;;;;;5091186;28;20048;-80
2021/12/10 13:01:54;;;;;;;11.52;4.10;;;;;;;;;;5097053;28;20039;-79
2021/12/10 13:04:22;;;;;;;9.32;3.72;;;;;;;;;;5093098;28;20050;-80
2021/12/10 13:06:49;;;;;;;10.70;3.90;;;;;;;;;;5093378;28;20044;-80
2021/12/10 13:09:23;;;;;;;7.20;3.53;;;;;;;;;;5086437;28;20063;-80
2021/12/10 13:11:56;;;;;;;9.68;3.65;;;;;;;;;;5099677;28;20055;-78
2021/12/10 13:14:26;;;;;;;8.45;3.65;;;;;;;;;;5074278;28;20055;-80
2021/12/10 13:16:55;;;;;;;11.25;4.28;;;;;;;;;;5094792;28;20068;-80
2021/12/10 13:19:24;;;;;;;9.80;4.47;;;;;;;;;;5094949;28;20050;-80
2021/12/10 13:21:55;;;;;;;8.35;4.00;;;;;;;;;;5092974;28;20035;-81
2021/12/10 13:24:21;;;;;;;9.35;3.72;;;;;;;;;;5092494;28;20134;-75
2021/12/10 13:26:48;;;;;;;10.13;4.45;;;;;;;;;;5101336;28;20043;-74
2021/12/10 13:29:15;;;;;;;9.02;4.32;;;;;;;;;;5099439;28;20443;-73
2021/12/10 13:31:41;;;;;;;11.48;6.30;;;;;;;;;;5109045;28;20043;-73
2021/12/10 13:34:08;;;;;;;8.98;4.90;;;;;;;;;;5094015;28;20044;-75
2021/12/10 13:36:35;;;;;;;11.02;5.65;;;;;;;;;;5087837;28;20127;-71
2021/12/10 13:39:01;;;;;;;8.70;4.95;;;;;;;;;;5093632;28;20059;-74
2021/12/10 13:41:29;;;;;;;10.35;5.50;;;;;;;;;;5090573;28;20109;-76
2021/12/10 13:44:02;;;;;;;9.63;5.03;;;;;;;;;;5088822;28;20044;-75
2021/12/10 13:46:33;;;;;;;10.40;4.80;;;;;;;;;;5094631;28;20100;-75
2021/12/10 13:49:02;;;;;;;8.05;4.90;;;;;;;;;;5087348;28;20164;-75
2021/12/10 13:51:32;;;;;;;9.68;4.68;;;;;;;;;;5095639;28;20054;-77
2021/12/10 13:53:58;;;;;;;11.02;5.50;;;;;;;;;;5072948;28;20044;-78
2021/12/10 13:56:24;;;;;;;12.02;5.50;;;;;;;;;;5080080;28;20054;-78
2021/12/10 13:58:51;;;;;;;10.75;4.38;;;;;;;;;;5134024;27;20773;-78
2021/12/10 14:01:20;;;;;;;12.10;5.07;;;;;;;;;;5106563;28;20036;-76
2021/12/10 14:03:55;;;;;;;10.18;5.10;;;;;;;;;;5110764;28;20043;-80
2021/12/10 14:06:40;;;;;;;10.18;4.55;;;;;;;;;;5144212;27;20047;-76
2021/12/10 14:09:13;;;;;;;10.27;5.30;;;;;;;;;;5119060;28;20105;-77
2021/12/10 14:12:00;;;;;;;7.65;4.93;;;;;;;;;;5141771;27;20115;-75
2021/12/10 14:14:35;;;;;;;8.57;4.97;;;;;;;;;;5119187;28;20436;-76
2021/12/10 14:17:03;;;;;;;9.45;5.13;;;;;;;;;;5110928;28;20039;-82
2021/12/10 14:19:38;;;;;;;12.13;5.38;;;;;;;;;;5137356;27;20435;-85
2021/12/10 14:22:06;;;;;;;11.00;5.43;;;;;;;;;;5127887;27;20042;-83
2021/12/10 14:24:39;;;;;;;11.98;5.93;;;;;;;;;;5103965;28;20430;-78
2021/12/10 14:27:08;;;;;;;8.48;5.10;;;;;;;;;;5128495;27;20051;-79
2021/12/10 14:29:34;;;;;;;8.85;5.35;;;;;;;;;;5115332;27;20070;-75
2021/12/10 14:32:00;;;;;;;17.48;5.82;;;;;;;;;;5107726;27;20055;-77
2021/12/10 14:34:27;;;;;;;15.40;6.45;;;;;;;;;;5118294;27;20040;-74
2021/12/10 14:37:02;;;;;;;10.93;6.05;;;;;;;;;;5115767;27;20050;-74
2021/12/10 14:39:28;;;;;;;12.18;5.90;;;;;;;;;;5121737;27;20043;-75
2021/12/10 14:41:56;;;;;;;11.68;6.22;;;;;;;;;;5114379;27;20050;-75
2021/12/10 14:44:28;;;;;;;11.70;5.55;;;;;;;;;;5113456;27;20038;-75
2021/12/10 14:47:01;;;;;;;12.45;6.18;;;;;;;;;;5109755;28;20406;-76
2021/12/10 14:49:27;;;;;;;11.32;5.72;;;;;;;;;;5106852;27;20043;-76
2021/12/10 14:52:05;;;;;;;11.73;5.72;;;;;;;;;;5110537;28;20479;-76